Terminal Aerodrome Forecast
Issued by NWS

Home | Current Version | Previous Version | Text Only | Print | Product List | Glossary On
Versions: 1 2 3 4 5 6 7 8 9 10 11 12 13 14 15
062
FTAK31 PAJN 282329
TAFAPG
TAF
PAPG 282329Z 2900/2924 VRB04KT P6SM VCSH SCT040 BKN090
     FM290900 VRB03KT P6SM VCSH SCT040 BKN090
      AMD LTD TO CLD VIS AND WIND 2906/2915=

USA.gov is the U.S. government's official web portal to all federal, state and local government web resources and services.